createdAt,value
2023-03-04T00:00:37.997Z,4.8
2023-03-04T00:01:38.306Z,4.8
2023-03-04T00:02:38.678Z,4.8
2023-03-04T00:03:38.865Z,4.8
2023-03-04T00:04:39.020Z,4.8
2023-03-04T00:05:39.202Z,4.8
2023-03-04T00:06:39.364Z,4.8
2023-03-04T00:07:39.528Z,4.8
2023-03-04T00:08:39.754Z,4.8
2023-03-04T00:09:39.949Z,4.8
2023-03-04T00:10:40.123Z,4.8
2023-03-04T00:11:40.305Z,4.8
2023-03-04T00:12:40.456Z,4.8
2023-03-04T00:13:40.609Z,4.8
2023-03-04T00:14:40.770Z,4.8
2023-03-04T00:15:40.971Z,4.8
2023-03-04T00:16:41.333Z,4.69
2023-03-04T00:17:41.604Z,4.69
2023-03-04T00:18:41.773Z,4.69
2023-03-04T00:19:41.922Z,4.69
2023-03-04T00:20:42.077Z,4.69
2023-03-04T00:21:42.234Z,4.69
2023-03-04T00:22:42.394Z,4.69
2023-03-04T00:23:42.544Z,4.69
2023-03-04T00:24:42.704Z,4.69
2023-03-04T00:25:43.784Z,4.69
2023-03-04T00:26:43.947Z,4.69
2023-03-04T00:27:44.116Z,4.69
2023-03-04T00:28:44.274Z,4.69
2023-03-04T00:29:44.420Z,4.69
2023-03-04T00:30:44.611Z,4.69
2023-03-04T00:31:44.838Z,4.69
2023-03-04T00:32:45.252Z,4.69
2023-03-04T00:33:45.504Z,4.69
2023-03-04T00:34:45.667Z,4.69
2023-03-04T00:35:45.956Z,4.69
2023-03-04T00:36:46.151Z,4.6
2023-03-04T00:37:46.316Z,4.6
2023-03-04T00:38:46.467Z,4.6
2023-03-04T00:39:46.750Z,4.6
2023-03-04T00:40:46.976Z,4.6
2023-03-04T00:41:47.146Z,4.6
2023-03-04T00:42:47.308Z,4.6
2023-03-04T00:43:47.446Z,4.6
2023-03-04T00:44:47.622Z,4.6
2023-03-04T00:45:47.881Z,4.6
2023-03-04T00:46:48.144Z,4.6
2023-03-04T00:47:48.314Z,4.6
2023-03-04T00:48:48.544Z,4.6
2023-03-04T00:49:48.701Z,4.6
2023-03-04T00:50:48.877Z,4.6
2023-03-04T00:51:49.044Z,4.6
2023-03-04T00:52:49.195Z,4.6
2023-03-04T00:53:49.358Z,4.6
2023-03-04T00:54:49.510Z,4.6
2023-03-04T00:55:49.666Z,4.6
2023-03-04T00:56:49.856Z,4.6
2023-03-04T00:57:50.035Z,4.6
2023-03-04T00:58:50.207Z,4.6
2023-03-04T00:59:50.375Z,4.6
2023-03-04T01:00:50.584Z,4.6
2023-03-04T01:01:50.774Z,4.6
2023-03-04T01:02:51.072Z,4.6
2023-03-04T01:03:51.415Z,4.6
2023-03-04T01:04:51.586Z,4.6
2023-03-04T01:05:51.752Z,4.6
2023-03-04T01:06:51.927Z,4.5
2023-03-04T01:07:52.094Z,4.5
2023-03-04T01:08:52.248Z,4.5
2023-03-04T01:09:52.423Z,4.5
2023-03-04T01:10:52.569Z,4.5
2023-03-04T01:11:52.721Z,4.5
2023-03-04T01:12:52.869Z,4.5
2023-03-04T01:13:53.072Z,4.5
2023-03-04T01:14:53.398Z,4.5
2023-03-04T01:15:53.554Z,4.5
2023-03-04T01:16:54.400Z,4.5
2023-03-04T01:17:54.758Z,4.5
2023-03-04T01:18:55.026Z,4.5
2023-03-04T01:19:55.174Z,4.5
2023-03-04T01:20:55.335Z,4.5
2023-03-04T01:21:55.498Z,4.5
2023-03-04T01:22:55.645Z,4.5
2023-03-04T01:23:55.799Z,4.5
2023-03-04T01:24:55.950Z,4.5
2023-03-04T01:25:56.107Z,4.5
2023-03-04T01:26:56.272Z,4.3
2023-03-04T01:27:56.490Z,4.3
2023-03-04T01:28:56.796Z,4.3
2023-03-04T01:29:56.965Z,4.3
2023-03-04T01:30:57.257Z,4.3
2023-03-04T01:31:57.604Z,4.3
2023-03-04T01:32:57.818Z,4.3
2023-03-04T01:33:57.975Z,4.3
2023-03-04T01:34:58.146Z,4.3
2023-03-04T01:35:58.322Z,4.3
2023-03-04T01:36:58.512Z,4.1
2023-03-04T01:37:58.690Z,4.1
2023-03-04T01:38:58.852Z,4.1
2023-03-04T01:39:59.001Z,4.1
2023-03-04T01:40:59.160Z,4.1
2023-03-04T01:41:59.328Z,4.1
2023-03-04T01:42:59.481Z,4.1
2023-03-04T01:43:59.662Z,4.1
2023-03-04T01:44:59.825Z,4.1
2023-03-04T01:46:00.243Z,4.1
2023-03-04T01:47:00.473Z,3.9
2023-03-04T01:48:00.632Z,3.9
2023-03-04T01:49:00.885Z,3.9
2023-03-04T01:50:01.155Z,3.9
2023-03-04T01:51:01.314Z,3.9
2023-03-04T01:52:01.466Z,3.9
2023-03-04T01:53:01.634Z,3.9
2023-03-04T01:54:01.821Z,3.9
2023-03-04T01:55:02.004Z,3.9
2023-03-04T01:56:02.183Z,3.9
2023-03-04T01:57:02.346Z,3.7
2023-03-04T01:58:02.504Z,3.7
2023-03-04T01:59:02.684Z,3.7
2023-03-04T02:00:02.840Z,3.7
2023-03-04T02:01:02.999Z,3.7
2023-03-04T02:02:03.147Z,3.7
2023-03-04T02:03:03.314Z,3.7
2023-03-04T02:04:03.560Z,3.7
2023-03-04T02:05:03.735Z,3.7
2023-03-04T02:06:03.904Z,3.7
2023-03-04T02:07:04.048Z,3.5
2023-03-04T02:08:04.209Z,3.5
2023-03-04T02:09:04.372Z,3.5
2023-03-04T02:10:04.584Z,3.5
2023-03-04T02:11:04.865Z,3.5
2023-03-04T02:12:05.052Z,3.5
2023-03-04T02:13:05.217Z,3.5
2023-03-04T02:14:05.391Z,3.5
2023-03-04T02:15:05.551Z,3.5
2023-03-04T02:16:05.895Z,3.5
2023-03-04T02:17:06.162Z,3.4
2023-03-04T02:18:06.314Z,3.4
2023-03-04T02:19:06.469Z,3.4
2023-03-04T02:20:06.622Z,3.4
2023-03-04T02:21:06.790Z,3.4
2023-03-04T02:22:06.999Z,3.4
2023-03-04T02:23:07.153Z,3.4
2023-03-04T02:24:07.322Z,3.4
2023-03-04T02:25:07.474Z,3.4
2023-03-04T02:26:07.645Z,3.4
2023-03-04T02:27:07.826Z,3.2
2023-03-04T02:28:07.979Z,3.2
2023-03-04T02:29:08.139Z,3.2
2023-03-04T02:30:08.304Z,3.2
2023-03-04T02:31:08.580Z,3.2
2023-03-04T02:32:08.873Z,3.2
2023-03-04T02:33:09.128Z,3.2
2023-03-04T02:34:09.292Z,3.2
2023-03-04T02:35:09.475Z,3.2
2023-03-04T02:36:09.624Z,3.2
2023-03-04T02:37:09.772Z,3.1
2023-03-04T02:38:09.939Z,3.1
2023-03-04T02:39:10.213Z,3.1
2023-03-04T02:40:10.572Z,3.1
2023-03-04T02:41:10.734Z,3.1
2023-03-04T02:42:10.896Z,3.1
2023-03-04T02:43:11.086Z,3.1
2023-03-04T02:44:11.249Z,3.1
2023-03-04T02:45:11.399Z,3.1
2023-03-04T02:46:11.723Z,3.1
2023-03-04T02:47:11.940Z,3
2023-03-04T02:48:12.106Z,3
2023-03-04T02:49:12.262Z,3
2023-03-04T02:50:12.413Z,3
2023-03-04T02:51:12.590Z,3
2023-03-04T02:52:12.757Z,3
2023-03-04T02:53:12.925Z,3
2023-03-04T02:54:13.079Z,3
2023-03-04T02:55:13.229Z,3
2023-03-04T02:56:13.428Z,3
2023-03-04T02:57:13.579Z,2.9
2023-03-04T02:58:13.754Z,2.9
2023-03-04T02:59:13.908Z,2.9
2023-03-04T03:00:14.066Z,2.9
2023-03-04T03:01:14.221Z,2.9
2023-03-04T03:02:14.379Z,2.9
2023-03-04T03:03:14.649Z,2.9
2023-03-04T03:04:14.930Z,2.9
2023-03-04T03:05:15.081Z,2.9
2023-03-04T03:06:15.244Z,2.9
2023-03-04T03:07:15.412Z,2.8
2023-03-04T03:08:15.566Z,2.8
2023-03-04T03:09:15.720Z,2.8
2023-03-04T03:10:15.872Z,2.8
2023-03-04T03:11:16.039Z,2.8
2023-03-04T03:12:16.203Z,2.8
2023-03-04T03:13:16.372Z,2.8
2023-03-04T03:14:16.576Z,2.8
2023-03-04T03:15:16.742Z,2.8
2023-03-04T03:16:17.040Z,2.8
2023-03-04T03:17:17.233Z,2.8
2023-03-04T03:18:17.386Z,2.8
2023-03-04T03:19:17.547Z,2.8
2023-03-04T03:20:17.713Z,2.8
2023-03-04T03:21:17.902Z,2.8
2023-03-04T03:22:18.093Z,2.8
2023-03-04T03:23:18.262Z,2.8
2023-03-04T03:24:18.462Z,2.8
2023-03-04T03:25:18.699Z,2.8
2023-03-04T03:26:18.880Z,2.8
2023-03-04T03:27:19.038Z,2.7
2023-03-04T03:28:19.192Z,2.7
2023-03-04T03:29:19.354Z,2.7
2023-03-04T03:30:19.507Z,2.7
2023-03-04T03:31:19.751Z,2.7
2023-03-04T03:32:20.013Z,2.7
2023-03-04T03:33:20.226Z,2.7
2023-03-04T03:34:20.380Z,2.7
2023-03-04T03:35:20.694Z,2.7
2023-03-04T03:36:21.101Z,2.7
2023-03-04T03:37:21.376Z,2.7
2023-03-04T03:38:21.530Z,2.7
2023-03-04T03:39:21.682Z,2.7
2023-03-04T03:40:21.835Z,2.7
2023-03-04T03:41:22.011Z,2.7
2023-03-04T03:42:22.173Z,2.7
2023-03-04T03:43:22.338Z,2.7
2023-03-04T03:44:22.492Z,2.7
2023-03-04T03:45:22.705Z,2.7
2023-03-04T03:46:22.886Z,2.7
2023-03-04T03:47:23.078Z,2.7
2023-03-04T03:48:23.256Z,2.7
2023-03-04T03:49:23.427Z,2.7
2023-03-04T03:50:23.588Z,2.7
2023-03-04T03:51:23.750Z,2.7
2023-03-04T03:52:23.912Z,2.7
2023-03-04T03:53:24.063Z,2.7
2023-03-04T03:54:24.243Z,2.7
2023-03-04T03:55:24.415Z,2.7
2023-03-04T03:56:24.604Z,2.7
2023-03-04T03:57:24.790Z,2.6
2023-03-04T03:58:25.067Z,2.6
2023-03-04T03:59:25.272Z,2.6
2023-03-04T04:00:25.444Z,2.6
2023-03-04T04:01:25.617Z,2.6
2023-03-04T04:02:26.041Z,2.6
2023-03-04T04:03:26.402Z,2.6
2023-03-04T04:04:26.561Z,2.6
2023-03-04T04:05:26.722Z,2.6
2023-03-04T04:06:26.899Z,2.6
2023-03-04T04:07:27.054Z,2.6
2023-03-04T04:08:27.220Z,2.6
2023-03-04T04:09:27.398Z,2.6
2023-03-04T04:10:27.548Z,2.6
2023-03-04T04:11:27.702Z,2.6
2023-03-04T04:12:27.877Z,2.6
2023-03-04T04:13:28.054Z,2.6
2023-03-04T04:14:28.218Z,2.6
2023-03-04T04:15:28.375Z,2.6
2023-03-04T04:16:28.684Z,2.6
2023-03-04T04:17:28.887Z,2.5
2023-03-04T04:18:29.080Z,2.5
2023-03-04T04:19:29.245Z,2.5
2023-03-04T04:20:29.411Z,2.5
2023-03-04T04:21:29.565Z,2.5
2023-03-04T04:22:29.715Z,2.5
2023-03-04T04:23:29.893Z,2.5
2023-03-04T04:24:30.057Z,2.5
2023-03-04T04:25:30.222Z,2.5
2023-03-04T04:26:30.388Z,2.5
2023-03-04T04:27:30.575Z,2.5
2023-03-04T04:28:30.724Z,2.5
2023-03-04T04:29:30.878Z,2.5
2023-03-04T04:30:31.087Z,2.5
2023-03-04T04:31:31.291Z,2.5
2023-03-04T04:32:31.543Z,2.5
2023-03-04T04:33:31.802Z,2.5
2023-03-04T04:34:31.962Z,2.5
2023-03-04T04:35:32.186Z,2.5
2023-03-04T04:36:32.416Z,2.5
2023-03-04T04:37:32.574Z,2.5
2023-03-04T04:38:32.741Z,2.5
2023-03-04T04:39:32.893Z,2.5
2023-03-04T04:40:33.044Z,2.5
2023-03-04T04:41:33.223Z,2.5
2023-03-04T04:42:33.366Z,2.5
2023-03-04T04:43:33.536Z,2.5
2023-03-04T04:44:33.695Z,2.5
2023-03-04T04:45:33.860Z,2.5
2023-03-04T04:46:34.021Z,2.5
2023-03-04T04:47:34.258Z,2.5
2023-03-04T04:48:34.404Z,2.5
2023-03-04T04:49:34.563Z,2.5
2023-03-04T04:50:34.727Z,2.5
2023-03-04T04:51:34.891Z,2.5
2023-03-04T04:52:35.061Z,2.5
2023-03-04T04:53:35.212Z,2.5
2023-03-04T04:54:35.374Z,2.5
2023-03-04T04:55:35.542Z,2.5
2023-03-04T04:56:35.703Z,2.5
2023-03-04T04:57:35.944Z,2.5
2023-03-04T04:58:36.150Z,2.5
2023-03-04T04:59:36.309Z,2.5
2023-03-04T05:00:36.471Z,2.5
2023-03-04T05:01:36.770Z,2.5
2023-03-04T05:02:37.068Z,2.5
2023-03-04T05:03:37.407Z,2.5
2023-03-04T05:04:37.643Z,2.5
2023-03-04T05:05:37.813Z,2.5
2023-03-04T05:06:37.978Z,2.5
2023-03-04T05:07:38.132Z,2.5
2023-03-04T05:08:38.303Z,2.5
2023-03-04T05:09:38.469Z,2.5
2023-03-04T05:10:38.648Z,2.5
2023-03-04T05:11:38.834Z,2.5
2023-03-04T05:12:38.988Z,2.5
2023-03-04T05:13:39.156Z,2.5
2023-03-04T05:14:39.315Z,2.5
2023-03-04T05:15:39.869Z,2.5
2023-03-04T05:16:40.170Z,2.5
2023-03-04T05:17:40.317Z,2.5
2023-03-04T05:18:40.492Z,2.5
2023-03-04T05:19:40.655Z,2.5
2023-03-04T05:20:40.852Z,2.5
2023-03-04T05:21:41.003Z,2.5
2023-03-04T05:22:41.172Z,2.5
2023-03-04T05:23:41.323Z,2.5
2023-03-04T05:24:41.507Z,2.5
2023-03-04T05:25:41.664Z,2.5
2023-03-04T05:26:41.831Z,2.4
2023-03-04T05:27:41.994Z,2.4
2023-03-04T05:28:42.177Z,2.4
2023-03-04T05:29:42.372Z,2.4
2023-03-04T05:30:42.778Z,2.4
2023-03-04T05:31:43.018Z,2.4
2023-03-04T05:32:43.194Z,2.4
2023-03-04T05:33:43.339Z,2.4
2023-03-04T05:34:43.493Z,2.4
2023-03-04T05:35:43.815Z,2.4
2023-03-04T05:36:44.029Z,2.3
2023-03-04T05:37:44.209Z,2.3
2023-03-04T05:38:44.387Z,2.3
2023-03-04T05:39:44.538Z,2.3
2023-03-04T05:40:44.721Z,2.3
2023-03-04T05:41:44.869Z,2.3
2023-03-04T05:42:45.008Z,2.3
2023-03-04T05:43:45.156Z,2.3
2023-03-04T05:44:45.340Z,2.3
2023-03-04T05:45:45.520Z,2.3
2023-03-04T05:46:45.862Z,2.3
2023-03-04T05:47:46.089Z,2.3
2023-03-04T05:48:46.294Z,2.3
2023-03-04T05:49:46.486Z,2.3
2023-03-04T05:50:46.636Z,2.3
2023-03-04T05:51:46.789Z,2.3
2023-03-04T05:52:46.954Z,2.3
2023-03-04T05:53:47.122Z,2.3
2023-03-04T05:54:47.269Z,2.3
2023-03-04T05:55:47.422Z,2.3
2023-03-04T05:56:47.579Z,2.2
2023-03-04T05:57:47.739Z,2.2
2023-03-04T05:58:47.901Z,2.2
2023-03-04T05:59:48.088Z,2.2
2023-03-04T06:00:48.261Z,2.2
2023-03-04T06:01:48.424Z,2.2
2023-03-04T06:02:48.766Z,2.2
2023-03-04T06:03:49.232Z,2.2
2023-03-04T06:04:49.553Z,2.2
2023-03-04T06:05:49.730Z,2.2
2023-03-04T06:06:49.964Z,2.2
2023-03-04T06:07:50.336Z,2.2
2023-03-04T06:08:50.595Z,2.2
2023-03-04T06:09:50.747Z,2.2
2023-03-04T06:10:50.902Z,2.2
2023-03-04T06:11:51.045Z,2.2
2023-03-04T06:12:51.209Z,2.2
2023-03-04T06:13:51.413Z,2.2
2023-03-04T06:14:51.647Z,2.2
2023-03-04T06:15:51.840Z,2.2
2023-03-04T06:16:52.018Z,2.09
2023-03-04T06:17:52.192Z,2.09
2023-03-04T06:18:52.342Z,2.09
2023-03-04T06:19:52.496Z,2.09
2023-03-04T06:20:52.653Z,2.09
2023-03-04T06:21:52.806Z,2.09
2023-03-04T06:22:52.961Z,2.09
2023-03-04T06:23:53.116Z,2.09
2023-03-04T06:24:53.265Z,2.09
2023-03-04T06:25:53.414Z,2.09
2023-03-04T06:26:53.561Z,2
2023-03-04T06:27:55.386Z,2
2023-03-04T06:28:55.517Z,2
2023-03-04T06:29:55.674Z,2
2023-03-04T06:30:55.824Z,2
2023-03-04T06:31:56.174Z,2
2023-03-04T06:32:56.418Z,2
2023-03-04T06:33:56.576Z,2
2023-03-04T06:34:56.736Z,2
2023-03-04T06:35:57.109Z,2
2023-03-04T06:36:57.435Z,1.9
2023-03-04T06:37:57.587Z,1.9
2023-03-04T06:38:57.765Z,1.9
2023-03-04T06:39:57.926Z,1.9
2023-03-04T06:40:58.118Z,1.9
2023-03-04T06:41:58.290Z,1.9
2023-03-04T06:42:58.452Z,1.9
2023-03-04T06:43:58.644Z,1.9
2023-03-04T06:44:58.792Z,1.9
2023-03-04T06:45:58.951Z,1.9
2023-03-04T06:46:59.283Z,1.8
2023-03-04T06:47:59.528Z,1.8
2023-03-04T06:48:59.679Z,1.8
2023-03-04T06:49:59.845Z,1.8
2023-03-04T06:50:59.996Z,1.8
2023-03-04T06:52:00.151Z,1.8
2023-03-04T06:53:00.322Z,1.8
2023-03-04T06:54:00.472Z,1.8
2023-03-04T06:55:00.625Z,1.8
2023-03-04T06:56:00.805Z,1.8
2023-03-04T06:57:00.978Z,1.8
2023-03-04T06:58:01.179Z,1.8
2023-03-04T06:59:01.320Z,1.8
2023-03-04T07:00:01.474Z,1.8
2023-03-04T07:01:01.784Z,1.8
2023-03-04T07:02:02.009Z,1.8
2023-03-04T07:03:02.167Z,1.8
2023-03-04T07:04:02.402Z,1.8
2023-03-04T07:05:02.656Z,1.8
2023-03-04T07:06:02.801Z,1.8
2023-03-04T07:07:02.981Z,1.8
2023-03-04T07:08:03.148Z,1.8
2023-03-04T07:09:03.305Z,1.8
2023-03-04T07:10:03.461Z,1.8
2023-03-04T07:11:03.607Z,1.8
2023-03-04T07:12:03.759Z,1.8
2023-03-04T07:13:03.908Z,1.8
2023-03-04T07:14:04.067Z,1.8
2023-03-04T07:15:04.232Z,1.8
2023-03-04T07:16:04.477Z,1.8
2023-03-04T07:17:04.702Z,1.8
2023-03-04T07:18:04.849Z,1.8
2023-03-04T07:19:05.013Z,1.8
2023-03-04T07:20:05.201Z,1.8
2023-03-04T07:21:05.371Z,1.8
2023-03-04T07:22:05.536Z,1.8
2023-03-04T07:23:05.699Z,1.8
2023-03-04T07:24:05.864Z,1.8
2023-03-04T07:25:06.034Z,1.8
2023-03-04T07:26:06.206Z,1.8
2023-03-04T07:27:06.406Z,1.9
2023-03-04T07:28:06.567Z,1.9
2023-03-04T07:29:06.739Z,1.9
2023-03-04T07:30:06.952Z,1.9
2023-03-04T07:31:07.143Z,1.9
2023-03-04T07:32:07.627Z,1.9
2023-03-04T07:33:07.981Z,1.9
2023-03-04T07:34:08.164Z,1.9
2023-03-04T07:35:08.347Z,1.9
2023-03-04T07:36:08.507Z,1.9
2023-03-04T07:37:08.671Z,2.09
2023-03-04T07:38:08.830Z,2.09
2023-03-04T07:39:08.992Z,2.09
2023-03-04T07:40:09.179Z,2.09
2023-03-04T07:41:09.332Z,2.09
2023-03-04T07:42:09.498Z,2.09
2023-03-04T07:43:09.669Z,2.09
2023-03-04T07:44:13.324Z,2.09
2023-03-04T07:45:13.735Z,2.09
2023-03-04T07:46:14.025Z,2.09
2023-03-04T07:47:14.310Z,2.4
2023-03-04T07:48:14.466Z,2.4
2023-03-04T07:49:14.629Z,2.4
2023-03-04T07:50:18.082Z,2.4
2023-03-04T07:51:18.363Z,2.5
2023-03-04T07:52:18.526Z,2.5
2023-03-04T07:53:18.686Z,2.5
2023-03-04T07:54:18.847Z,2.5
2023-03-04T07:55:19.012Z,2.5
2023-03-04T07:56:19.177Z,2.5
2023-03-04T07:57:19.332Z,2.7
2023-03-04T07:58:19.497Z,2.7
2023-03-04T07:59:19.645Z,2.7
2023-03-04T08:00:19.796Z,2.7
2023-03-04T08:01:19.943Z,2.7
2023-03-04T08:02:20.166Z,2.7
2023-03-04T08:03:20.365Z,2.7
2023-03-04T08:04:20.631Z,2.7
2023-03-04T08:05:20.906Z,2.7
2023-03-04T08:06:21.070Z,2.7
2023-03-04T08:07:21.232Z,3
2023-03-04T08:08:21.393Z,3
2023-03-04T08:09:21.551Z,3
2023-03-04T08:10:21.708Z,3
2023-03-04T08:11:21.865Z,3
2023-03-04T08:12:22.023Z,3
2023-03-04T08:13:25.831Z,3
2023-03-04T08:14:26.150Z,3
2023-03-04T08:15:26.323Z,3
2023-03-04T08:16:26.484Z,3
2023-03-04T08:17:26.654Z,3.5
2023-03-04T08:18:26.854Z,3.5
2023-03-04T08:19:27.018Z,3.5
2023-03-04T08:20:27.393Z,3.5
2023-03-04T08:21:27.614Z,3.5
2023-03-04T08:22:27.760Z,3.5
2023-03-04T08:23:28.047Z,3.5
2023-03-04T08:24:28.293Z,3.5
2023-03-04T08:25:28.450Z,3.5
2023-03-04T08:26:28.601Z,3.9
2023-03-04T08:27:28.774Z,3.9
2023-03-04T08:28:29.112Z,3.9
2023-03-04T08:29:29.275Z,3.9
2023-03-04T08:30:29.436Z,3.9
2023-03-04T08:31:29.846Z,3.9
2023-03-04T08:32:30.490Z,3.9
2023-03-04T08:33:30.815Z,3.9
2023-03-04T08:34:31.007Z,3.9
2023-03-04T08:35:31.362Z,3.9
2023-03-04T08:36:31.588Z,4.4
2023-03-04T08:37:31.768Z,4.4
2023-03-04T08:38:31.956Z,4.4
2023-03-04T08:39:32.128Z,4.4
2023-03-04T08:40:32.284Z,4.4
2023-03-04T08:41:32.535Z,4.4
2023-03-04T08:42:32.770Z,4.4
2023-03-04T08:43:32.920Z,4.4
2023-03-04T08:44:33.096Z,4.4
2023-03-04T08:45:33.267Z,4.4
2023-03-04T08:46:33.626Z,5.1
2023-03-04T08:47:33.841Z,5.1
2023-03-04T08:48:34.007Z,5.1
2023-03-04T08:49:34.201Z,5.1
2023-03-04T08:50:34.350Z,5.1
2023-03-04T08:51:34.507Z,5.1
2023-03-04T08:52:34.667Z,5.1
2023-03-04T08:53:34.831Z,5.1
2023-03-04T08:54:34.984Z,5.1
2023-03-04T08:55:35.174Z,5.1
2023-03-04T08:56:35.352Z,5.9
2023-03-04T08:57:35.506Z,5.9
2023-03-04T08:58:35.673Z,5.9
2023-03-04T08:59:38.659Z,5.9
2023-03-04T09:00:38.939Z,5.9
2023-03-04T09:01:39.250Z,5.9
2023-03-04T09:02:39.457Z,5.9
2023-03-04T09:03:39.795Z,5.9
2023-03-04T09:04:40.093Z,5.9
2023-03-04T09:05:40.246Z,5.9
2023-03-04T09:06:40.400Z,6.9
2023-03-04T09:07:40.551Z,6.9
2023-03-04T09:08:40.705Z,6.9
2023-03-04T09:09:40.867Z,6.9
2023-03-04T09:10:41.021Z,6.9
2023-03-04T09:11:41.182Z,6.9
2023-03-04T09:12:41.359Z,6.9
2023-03-04T09:13:41.581Z,6.9
2023-03-04T09:14:41.781Z,6.9
2023-03-04T09:15:41.980Z,6.9
2023-03-04T09:16:42.240Z,7.8
2023-03-04T09:17:42.507Z,7.8
2023-03-04T09:18:42.667Z,7.8
2023-03-04T09:19:42.817Z,7.8
2023-03-04T09:20:42.984Z,7.8
2023-03-04T09:21:43.140Z,7.8
2023-03-04T09:22:43.376Z,7.8
2023-03-04T09:23:43.540Z,7.8
2023-03-04T09:24:43.692Z,7.8
2023-03-04T09:25:43.857Z,7.8
2023-03-04T09:26:44.014Z,8.7
2023-03-04T09:27:44.192Z,8.7
2023-03-04T09:28:44.371Z,8.7
2023-03-04T09:29:44.565Z,8.7
2023-03-04T09:30:44.745Z,8.7
2023-03-04T09:31:45.019Z,8.7
2023-03-04T09:32:45.257Z,8.7
2023-03-04T09:33:45.409Z,8.7
2023-03-04T09:34:45.580Z,8.7
2023-03-04T09:35:45.769Z,8.7
2023-03-04T09:36:45.953Z,9.5
2023-03-04T09:37:46.106Z,9.5
2023-03-04T09:38:46.267Z,9.5
2023-03-04T09:39:46.472Z,9.5
2023-03-04T09:40:46.655Z,9.5
2023-03-04T09:41:46.832Z,9.5
2023-03-04T09:42:47.676Z,9.5
2023-03-04T09:43:47.848Z,9.5
2023-03-04T09:44:47.997Z,9.5
2023-03-04T09:45:48.158Z,9.5
2023-03-04T09:46:48.356Z,10.4
2023-03-04T09:47:48.582Z,10.4
2023-03-04T09:48:48.739Z,10.4
2023-03-04T09:49:48.901Z,10.4
2023-03-04T09:50:49.046Z,10.4
2023-03-04T09:51:49.214Z,10.4
2023-03-04T09:52:49.368Z,10.4
2023-03-04T09:53:49.516Z,10.4
2023-03-04T09:54:49.672Z,10.4
2023-03-04T09:55:49.818Z,10.4
2023-03-04T09:56:49.998Z,11.1
2023-03-04T09:57:50.157Z,11.1
2023-03-04T09:58:50.363Z,11.1
2023-03-04T09:59:50.532Z,11.1
2023-03-04T10:00:50.768Z,11.1
2023-03-04T10:01:51.067Z,11.1
2023-03-04T10:02:51.223Z,11.1
2023-03-04T10:03:51.629Z,11.1
2023-03-04T10:04:52.153Z,11.1
2023-03-04T10:05:52.414Z,11.1
2023-03-04T10:06:52.572Z,11.9
2023-03-04T10:07:52.727Z,11.9
2023-03-04T10:08:52.903Z,11.9
2023-03-04T10:09:53.070Z,11.9
2023-03-04T10:10:53.419Z,11.9
2023-03-04T10:11:53.687Z,11.9
2023-03-04T10:12:53.837Z,11.9
2023-03-04T10:13:53.996Z,11.9
2023-03-04T10:14:54.145Z,11.9
2023-03-04T10:15:54.456Z,11.9
2023-03-04T10:16:54.671Z,12.7
2023-03-04T10:17:54.827Z,12.7
2023-03-04T10:18:54.995Z,12.7
2023-03-04T10:19:55.146Z,12.7
2023-03-04T10:20:55.300Z,12.7
2023-03-04T10:21:55.454Z,12.7
2023-03-04T10:22:55.618Z,12.7
2023-03-04T10:23:59.745Z,12.7
2023-03-04T10:25:00.041Z,13.2
2023-03-04T10:26:00.205Z,13.2
2023-03-04T10:27:00.360Z,13.3
2023-03-04T10:28:00.530Z,13.3
2023-03-04T10:29:00.707Z,13.3
2023-03-04T10:30:00.919Z,13.3
2023-03-04T10:31:01.145Z,13.3
2023-03-04T10:32:01.683Z,13.3
2023-03-04T10:33:02.129Z,13.3
2023-03-04T10:34:02.299Z,13.3
2023-03-04T10:35:02.531Z,13.3
2023-03-04T10:36:02.858Z,13.3
2023-03-04T10:37:03.139Z,13.9
2023-03-04T10:38:03.424Z,13.9
2023-03-04T10:39:03.628Z,13.9
2023-03-04T10:40:03.816Z,13.9
2023-03-04T10:41:03.974Z,13.9
2023-03-04T10:42:04.477Z,13.9
2023-03-04T10:43:04.796Z,13.9
2023-03-04T10:44:04.969Z,13.9
2023-03-04T10:45:05.142Z,13.9
2023-03-04T10:46:05.432Z,13.9
2023-03-04T10:47:05.668Z,14.1
2023-03-04T10:48:05.864Z,14.1
2023-03-04T10:49:06.067Z,14.1
2023-03-04T10:50:06.291Z,14.1
2023-03-04T10:51:06.501Z,14.1
2023-03-04T10:52:06.658Z,14.1
2023-03-04T10:53:06.814Z,14.1
2023-03-04T10:54:06.966Z,14.1
2023-03-04T10:55:07.140Z,14.1
2023-03-04T10:56:07.299Z,14.6
2023-03-04T10:57:07.458Z,14.6
2023-03-04T10:58:07.640Z,14.6
2023-03-04T10:59:07.790Z,14.6
2023-03-04T11:00:07.963Z,14.6
2023-03-04T11:01:08.380Z,14.6
2023-03-04T11:02:08.604Z,14.6
2023-03-04T11:03:08.867Z,14.6
2023-03-04T11:04:09.089Z,14.6
2023-03-04T11:05:09.325Z,14.6
2023-03-04T11:06:09.475Z,15.1
2023-03-04T11:07:09.631Z,15.1
2023-03-04T11:08:09.782Z,15.1
2023-03-04T11:09:09.929Z,15.1
2023-03-04T11:10:10.096Z,15.1
2023-03-04T11:11:10.248Z,15.1
2023-03-04T11:12:10.399Z,15.1
2023-03-04T11:13:10.552Z,15.1
2023-03-04T11:14:10.731Z,15.1
2023-03-04T11:15:10.879Z,15.1
2023-03-04T11:16:11.105Z,15.8
2023-03-04T11:17:11.335Z,15.8
2023-03-04T11:18:11.491Z,15.8
2023-03-04T11:19:11.639Z,15.8
2023-03-04T11:20:11.808Z,15.8
2023-03-04T11:21:11.964Z,15.8
2023-03-04T11:22:12.108Z,15.8
2023-03-04T11:23:12.272Z,15.8
2023-03-04T11:24:29.494Z,15.8
2023-03-04T11:25:30.045Z,16.4
2023-03-04T11:26:30.226Z,16.6
2023-03-04T11:27:30.374Z,16.6
2023-03-04T11:28:30.528Z,16.6
2023-03-04T11:29:30.685Z,16.6
2023-03-04T11:30:30.834Z,16.6
2023-03-04T11:31:31.061Z,16.6
2023-03-04T11:32:31.369Z,16.6
2023-03-04T11:33:31.577Z,16.6
2023-03-04T11:34:31.741Z,16.6
2023-03-04T11:35:31.933Z,16.6
2023-03-04T11:36:32.113Z,17.4
2023-03-04T11:37:32.278Z,17.4
2023-03-04T11:38:32.445Z,17.4
2023-03-04T11:39:32.608Z,17.4
2023-03-04T11:40:32.759Z,17.4
2023-03-04T11:41:32.912Z,17.4
2023-03-04T11:42:33.120Z,17.4
2023-03-04T11:43:33.276Z,17.4
2023-03-04T11:44:33.453Z,17.4
2023-03-04T11:45:34.180Z,17.4
2023-03-04T11:46:34.325Z,18.1
2023-03-04T11:47:34.483Z,18.1
2023-03-04T11:48:34.629Z,18.1
2023-03-04T11:49:34.781Z,18.1
2023-03-04T11:50:34.942Z,18.1
2023-03-04T11:51:35.100Z,18.1
2023-03-04T11:52:35.270Z,18.1
2023-03-04T11:53:35.480Z,18.1
2023-03-04T11:54:35.677Z,18.1
2023-03-04T11:55:35.825Z,18.1
2023-03-04T11:56:35.990Z,19
2023-03-04T11:57:36.164Z,19
2023-03-04T11:58:36.341Z,19
2023-03-04T11:59:36.498Z,19
2023-03-04T12:00:36.656Z,19
2023-03-04T12:01:36.828Z,19
2023-03-04T12:02:36.993Z,19
2023-03-04T12:03:37.230Z,19
2023-03-04T12:04:37.592Z,19
2023-03-04T12:05:37.856Z,19
2023-03-04T12:06:38.033Z,19.79
2023-03-04T12:07:38.197Z,19.79
2023-03-04T12:08:38.356Z,19.79
2023-03-04T12:09:38.545Z,19.79
2023-03-04T12:10:38.716Z,19.79
2023-03-04T12:11:38.864Z,19.79
2023-03-04T12:12:39.013Z,19.79
2023-03-04T12:13:39.170Z,19.79
2023-03-04T12:14:39.411Z,19.79
2023-03-04T12:15:39.624Z,19.79
2023-03-04T12:16:39.829Z,20.5
2023-03-04T12:17:39.983Z,20.5
2023-03-04T12:18:40.133Z,20.5
2023-03-04T12:19:40.297Z,20.5
2023-03-04T12:20:40.449Z,20.5
2023-03-04T12:21:40.593Z,20.5
2023-03-04T12:22:40.744Z,20.5
2023-03-04T12:23:40.897Z,20.5
2023-03-04T12:24:41.050Z,20.5
2023-03-04T12:25:41.209Z,20.5
2023-03-04T12:26:41.355Z,20.9
2023-03-04T12:27:41.517Z,20.9
2023-03-04T12:28:41.669Z,20.9
2023-03-04T12:29:41.807Z,20.9
2023-03-04T12:30:41.992Z,20.9
2023-03-04T12:31:42.179Z,20.9
2023-03-04T12:32:42.337Z,20.9
2023-03-04T12:33:42.643Z,20.9
2023-03-04T12:34:42.955Z,20.9
2023-03-04T12:35:43.194Z,20.9
2023-03-04T12:36:43.437Z,21.2
2023-03-04T12:37:43.589Z,21.2
2023-03-04T12:38:43.742Z,21.2
2023-03-04T12:39:43.909Z,21.2
2023-03-04T12:40:44.063Z,21.2
2023-03-04T12:41:44.222Z,21.2
2023-03-04T12:42:44.360Z,21.2
2023-03-04T12:43:44.518Z,21.2
2023-03-04T12:44:44.677Z,21.2
2023-03-04T12:45:44.849Z,21.2
2023-03-04T12:46:45.166Z,21.3
2023-03-04T12:47:45.434Z,21.3
2023-03-04T12:48:45.598Z,21.3
2023-03-04T12:49:45.736Z,21.3
2023-03-04T12:50:45.881Z,21.3
2023-03-04T12:51:46.036Z,21.3
2023-03-04T12:52:46.212Z,21.3
2023-03-04T12:53:46.374Z,21.3
2023-03-04T12:54:46.548Z,21.3
2023-03-04T12:55:46.712Z,21.3
2023-03-04T12:56:46.871Z,21.6
2023-03-04T12:57:47.072Z,21.6
2023-03-04T12:58:47.241Z,21.6
2023-03-04T12:59:47.386Z,21.6
2023-03-04T13:00:47.537Z,21.6
2023-03-04T13:01:47.695Z,21.6
2023-03-04T13:02:48.115Z,21.6
2023-03-04T13:03:48.606Z,21.6
2023-03-04T13:04:48.819Z,21.6
2023-03-04T13:05:48.983Z,21.6
2023-03-04T13:06:49.153Z,22
2023-03-04T13:07:49.329Z,22
2023-03-04T13:08:49.486Z,22
2023-03-04T13:09:49.653Z,22
2023-03-04T13:10:49.819Z,22
2023-03-04T13:11:49.976Z,22
2023-03-04T13:12:50.137Z,22
2023-03-04T13:13:50.288Z,22
2023-03-04T13:14:50.446Z,22
2023-03-04T13:15:50.724Z,22
2023-03-04T13:16:51.050Z,22.3
2023-03-04T13:17:51.224Z,22.3
2023-03-04T13:18:51.388Z,22.3
2023-03-04T13:19:51.577Z,22.3
2023-03-04T13:20:51.729Z,22.3
2023-03-04T13:21:52.316Z,22.3
2023-03-04T13:22:52.462Z,22.3
2023-03-04T13:23:53.514Z,22.3
2023-03-04T13:24:53.664Z,22.3
2023-03-04T13:25:54.484Z,22.3
2023-03-04T13:26:54.717Z,22.6
2023-03-04T13:27:54.870Z,22.6
2023-03-04T13:28:55.015Z,22.6
2023-03-04T13:29:56.054Z,22.6
2023-03-04T13:30:56.238Z,22.6
2023-03-04T13:31:57.494Z,22.6
2023-03-04T13:32:57.741Z,22.6
2023-03-04T13:33:57.900Z,22.6
2023-03-04T13:34:58.054Z,22.6
2023-03-04T13:35:58.377Z,22.6
2023-03-04T13:36:58.588Z,22.3
2023-03-04T13:37:58.748Z,22.3
2023-03-04T13:38:58.901Z,22.3
2023-03-04T13:39:59.061Z,22.3
2023-03-04T13:40:59.208Z,22.3
2023-03-04T13:41:59.385Z,22.3
2023-03-04T13:42:59.547Z,22.3